createdAt,value
2023-03-20T00:02:08.092Z,7.10
2023-03-20T00:04:36.796Z,8.05
2023-03-20T00:07:05.593Z,7.75
2023-03-20T00:09:33.895Z,6.82
2023-03-20T00:12:02.148Z,5.72
2023-03-20T00:14:30.294Z,6.03
2023-03-20T00:17:00.275Z,6.72
2023-03-20T00:19:31.063Z,6.22
2023-03-20T00:21:59.376Z,6.50
2023-03-20T00:24:27.338Z,3.72
2023-03-20T00:26:55.953Z,4.00
2023-03-20T00:29:29.712Z,4.95
2023-03-20T00:32:00.349Z,4.15
2023-03-20T00:34:31.892Z,4.43
2023-03-20T00:37:00.054Z,3.83
2023-03-20T00:39:28.440Z,3.42
2023-03-20T00:41:59.050Z,4.13
2023-03-20T00:44:30.447Z,3.83
2023-03-20T00:47:02.794Z,4.03
2023-03-20T00:49:34.234Z,3.42
2023-03-20T00:52:03.638Z,2.90
2023-03-20T00:54:32.530Z,3.60
2023-03-20T00:57:03.999Z,4.05
2023-03-20T00:59:38.200Z,4.28
2023-03-20T01:02:07.972Z,3.75
2023-03-20T01:04:38.603Z,3.90
2023-03-20T01:07:09.009Z,2.92
2023-03-20T01:09:38.512Z,4.45
2023-03-20T01:12:08.468Z,9.63
2023-03-20T01:14:36.590Z,6.47
2023-03-20T01:17:05.267Z,6.07
2023-03-20T01:19:34.861Z,8.10
2023-03-20T01:22:04.389Z,6.38
2023-03-20T01:24:32.692Z,5.25
2023-03-20T01:27:04.258Z,5.80
2023-03-20T01:29:33.366Z,4.32
2023-03-20T01:32:02.202Z,6.32
2023-03-20T01:34:30.613Z,6.25
2023-03-20T01:37:00.392Z,4.45
2023-03-20T01:39:35.101Z,3.80
2023-03-20T01:42:07.183Z,4.70
2023-03-20T01:44:38.923Z,3.67
2023-03-20T01:47:16.019Z,4.95
2023-03-20T01:50:19.461Z,4.03
2023-03-20T01:52:52.085Z,3.65
2023-03-20T01:55:21.653Z,3.47
2023-03-20T01:57:52.266Z,4.15
2023-03-20T02:00:22.190Z,5.15
2023-03-20T02:02:50.347Z,3.95
2023-03-20T02:05:21.895Z,3.83
2023-03-20T02:08:00.270Z,4.50
2023-03-20T02:10:29.009Z,6.78
2023-03-20T02:12:57.607Z,3.92
2023-03-20T02:15:29.466Z,6.25
2023-03-20T02:17:57.639Z,4.15
2023-03-20T02:20:46.356Z,6.25
2023-03-20T02:23:46.060Z,5.05
2023-03-20T02:26:50.452Z,4.38
2023-03-20T02:29:53.066Z,3.75
2023-03-20T02:33:08.446Z,3.85
2023-03-20T02:36:16.801Z,3.58
2023-03-20T02:39:11.752Z,4.47
2023-03-20T02:41:44.423Z,5.07
2023-03-20T02:44:21.834Z,4.72
2023-03-20T02:47:00.303Z,5.07
2023-03-20T02:49:47.082Z,5.82
2023-03-20T02:52:21.548Z,5.68
2023-03-20T02:55:07.324Z,6.72
2023-03-20T02:57:45.255Z,5.40
2023-03-20T03:00:20.136Z,6.65
2023-03-20T03:02:56.644Z,6.50
2023-03-20T03:05:33.838Z,6.68
2023-03-20T03:08:06.526Z,7.32
2023-03-20T03:10:39.312Z,8.73
2023-03-20T03:13:12.380Z,6.05
2023-03-20T03:15:44.860Z,8.90
2023-03-20T03:18:16.480Z,8.40
2023-03-20T03:20:46.441Z,7.93
2023-03-20T03:23:24.292Z,7.80
2023-03-20T03:25:55.412Z,7.30
2023-03-20T03:28:30.196Z,8.23
2023-03-20T03:31:00.177Z,7.43
2023-03-20T03:33:31.552Z,8.18
2023-03-20T03:36:07.834Z,7.40
2023-03-20T03:38:44.749Z,10.70
2023-03-20T03:41:21.676Z,10.23
2023-03-20T03:43:58.045Z,8.43
2023-03-20T03:46:34.415Z,6.82
2023-03-20T03:49:05.865Z,8.38
2023-03-20T03:51:40.379Z,8.70
2023-03-20T03:54:12.521Z,11.73
2023-03-20T03:56:47.769Z,8.48
2023-03-20T03:59:21.921Z,9.60
2023-03-20T04:01:54.262Z,8.50
2023-03-20T04:04:25.763Z,9.77
2023-03-20T04:06:53.829Z,9.10
2023-03-20T04:09:21.791Z,8.07
2023-03-20T04:11:52.958Z,8.63
2023-03-20T04:14:21.821Z,10.80
2023-03-20T04:16:51.378Z,9.57
2023-03-20T04:19:19.657Z,10.27
2023-03-20T04:21:47.586Z,7.93
2023-03-20T04:24:16.173Z,10.85
2023-03-20T04:26:46.513Z,11.52
2023-03-20T04:29:16.012Z,9.73
2023-03-20T04:31:47.612Z,10.93
2023-03-20T04:34:16.521Z,9.68
2023-03-20T04:36:46.850Z,10.52
2023-03-20T04:39:15.162Z,9.93
2023-03-20T04:41:43.539Z,9.43
2023-03-20T04:44:11.604Z,16.42
2023-03-20T04:46:44.179Z,10.20
2023-03-20T04:49:12.216Z,12.27
2023-03-20T04:51:40.563Z,12.18
2023-03-20T04:54:08.545Z,11.23
2023-03-20T04:56:36.541Z,12.90
2023-03-20T04:59:06.414Z,10.85
2023-03-20T05:01:34.387Z,12.13
2023-03-20T05:04:04.477Z,13.00
2023-03-20T05:06:33.349Z,9.40
2023-03-20T05:09:01.920Z,10.23
2023-03-20T05:11:31.182Z,12.10
2023-03-20T05:13:59.110Z,12.85
2023-03-20T05:16:27.204Z,12.10
2023-03-20T05:18:55.726Z,13.82
2023-03-20T05:21:25.172Z,12.95
2023-03-20T05:23:53.260Z,11.82
2023-03-20T05:26:21.660Z,13.50
2023-03-20T05:28:49.744Z,12.30
2023-03-20T05:31:18.154Z,12.27
2023-03-20T05:33:46.535Z,12.63
2023-03-20T05:36:14.535Z,11.50
2023-03-20T05:38:45.120Z,14.68
2023-03-20T05:41:13.177Z,11.18
2023-03-20T05:43:42.883Z,12.10
2023-03-20T05:46:11.021Z,11.82
2023-03-20T05:48:39.043Z,12.93
2023-03-20T05:51:07.619Z,12.45
2023-03-20T05:53:36.306Z,11.48
2023-03-20T05:56:08.654Z,11.13
2023-03-20T06:01:25.631Z,12.25
2023-03-20T06:03:57.172Z,10.07
2023-03-20T06:06:26.551Z,13.10
2023-03-20T06:08:55.268Z,10.73
2023-03-20T06:11:26.012Z,11.27
2023-03-20T06:13:55.799Z,11.98
2023-03-20T06:16:24.913Z,11.43
2023-03-20T06:18:53.341Z,11.60
2023-03-20T06:21:21.833Z,12.90
2023-03-20T06:24:12.432Z,13.38
2023-03-20T06:26:42.064Z,12.00
2023-03-20T06:29:10.999Z,12.88
2023-03-20T06:31:40.398Z,12.02
2023-03-20T06:34:08.521Z,12.07
2023-03-20T06:36:37.018Z,14.07
2023-03-20T06:39:05.970Z,12.05
2023-03-20T06:41:35.196Z,13.25
2023-03-20T06:44:06.346Z,13.48
2023-03-20T06:46:36.425Z,13.13
2023-03-20T06:49:10.312Z,13.88
2023-03-20T06:51:47.844Z,13.25
2023-03-20T06:54:16.936Z,13.40
2023-03-20T06:56:45.345Z,14.15
2023-03-20T06:59:20.228Z,14.85
2023-03-20T07:01:48.564Z,14.18
2023-03-20T07:04:17.389Z,15.02
2023-03-20T07:06:46.002Z,14.32
2023-03-20T07:12:20.005Z,15.40
2023-03-20T07:14:50.020Z,16.27
2023-03-20T07:17:18.120Z,14.48
2023-03-20T07:19:46.733Z,13.13
2023-03-20T07:22:21.947Z,15.13
2023-03-20T07:24:51.257Z,17.38
2023-03-20T07:27:19.457Z,16.48
2023-03-20T07:29:53.193Z,19.73
2023-03-20T07:32:24.834Z,16.10
2023-03-20T07:35:07.730Z,17.27
2023-03-20T07:37:39.143Z,18.30
2023-03-20T07:40:16.056Z,16.42
2023-03-20T07:42:47.131Z,21.00
2023-03-20T07:45:22.999Z,17.30
2023-03-20T07:47:53.411Z,17.92
2023-03-20T07:50:22.481Z,17.20
2023-03-20T07:52:51.296Z,15.50
2023-03-20T07:55:20.114Z,16.80
2023-03-20T07:57:51.034Z,20.02
2023-03-20T08:00:25.228Z,18.75
2023-03-20T08:03:00.343Z,21.00
2023-03-20T08:05:32.596Z,17.73
2023-03-20T08:08:03.791Z,19.63
2023-03-20T08:10:33.752Z,20.30
2023-03-20T08:13:04.206Z,17.70
2023-03-20T08:15:36.260Z,24.27
2023-03-20T08:18:04.896Z,18.60
2023-03-20T08:20:33.906Z,25.33
2023-03-20T08:23:03.844Z,22.42
2023-03-20T08:25:34.639Z,20.60
2023-03-20T08:28:03.868Z,21.38
2023-03-20T08:30:41.529Z,21.13
2023-03-20T08:33:12.827Z,21.80
2023-03-20T08:35:41.303Z,20.08
2023-03-20T08:38:13.395Z,24.23
2023-03-20T08:40:47.482Z,25.02
2023-03-20T08:43:17.993Z,21.20
2023-03-20T08:45:50.940Z,23.40
2023-03-20T08:48:19.379Z,22.20
2023-03-20T08:50:49.893Z,20.98
2023-03-20T08:53:22.262Z,20.50
2023-03-20T08:55:52.198Z,19.50
2023-03-20T08:58:24.168Z,19.08
2023-03-20T09:00:57.237Z,20.40
2023-03-20T09:05:54.684Z,20.13
2023-03-20T09:08:23.433Z,17.40
2023-03-20T09:10:53.447Z,19.63
2023-03-20T09:13:27.487Z,18.58
2023-03-20T09:15:58.213Z,17.60
2023-03-20T09:18:29.540Z,17.40
2023-03-20T09:20:57.841Z,18.73
2023-03-20T09:23:27.415Z,17.63
2023-03-20T09:25:56.643Z,16.25
2023-03-20T09:28:27.253Z,16.33
2023-03-20T09:31:01.208Z,16.33
2023-03-20T09:33:30.520Z,16.70
2023-03-20T09:36:01.945Z,15.27
2023-03-20T09:38:32.811Z,13.45
2023-03-20T09:41:05.967Z,14.57
2023-03-20T09:46:26.675Z,16.00
2023-03-20T09:49:05.666Z,16.08
2023-03-20T09:51:42.102Z,16.30
2023-03-20T09:54:20.916Z,19.23
2023-03-20T09:56:51.565Z,16.60
2023-03-20T09:59:21.653Z,15.27
2023-03-20T10:01:55.941Z,14.18
2023-03-20T10:04:29.079Z,16.35
2023-03-20T10:06:58.608Z,16.33
2023-03-20T10:09:30.595Z,14.02
2023-03-20T10:12:28.668Z,14.52
2023-03-20T10:15:08.312Z,14.85
2023-03-20T10:17:51.058Z,13.73
2023-03-20T10:20:29.617Z,15.00
2023-03-20T10:23:04.562Z,16.02
2023-03-20T10:25:36.514Z,14.85
2023-03-20T10:28:16.251Z,14.43
2023-03-20T10:30:56.082Z,18.38
2023-03-20T10:33:40.046Z,11.95
2023-03-20T10:36:24.799Z,13.55
2023-03-20T10:39:00.701Z,9.98
2023-03-20T10:41:34.077Z,12.20
2023-03-20T10:44:05.230Z,9.15
2023-03-20T10:46:37.191Z,13.00
2023-03-20T10:49:19.379Z,14.68
2023-03-20T10:51:50.881Z,8.90
2023-03-20T10:54:25.813Z,8.93
2023-03-20T10:56:56.966Z,10.95
2023-03-20T10:59:27.373Z,10.30
2023-03-20T11:01:56.170Z,11.63
2023-03-20T11:04:25.878Z,8.75
2023-03-20T11:07:01.301Z,9.98
2023-03-20T11:09:31.356Z,11.25
2023-03-20T11:12:02.939Z,8.55
2023-03-20T11:14:35.426Z,11.60
2023-03-20T11:17:05.665Z,12.30
2023-03-20T11:19:37.252Z,9.48
2023-03-20T11:22:10.134Z,9.13
2023-03-20T11:24:42.427Z,8.20
2023-03-20T11:27:12.052Z,11.05
2023-03-20T11:29:43.162Z,9.32
2023-03-20T11:32:23.768Z,9.80
2023-03-20T11:34:57.444Z,9.70
2023-03-20T11:37:29.337Z,7.60
2023-03-20T11:40:01.680Z,7.10
2023-03-20T11:42:32.299Z,8.38
2023-03-20T11:45:06.870Z,9.95
2023-03-20T11:47:36.723Z,8.25
2023-03-20T11:50:08.444Z,7.30
2023-03-20T11:52:39.974Z,7.32
2023-03-20T11:55:24.232Z,8.48
2023-03-20T11:57:52.404Z,11.85
2023-03-20T12:00:22.520Z,6.60
2023-03-20T12:02:52.232Z,4.47
2023-03-20T12:05:31.844Z,5.75
2023-03-20T12:08:04.814Z,8.38
2023-03-20T12:10:39.485Z,7.05
2023-03-20T12:13:14.475Z,8.73
2023-03-20T12:15:47.846Z,8.00
2023-03-20T12:18:31.006Z,6.88
2023-03-20T12:21:08.499Z,6.00
2023-03-20T12:23:40.756Z,4.70
2023-03-20T12:26:13.919Z,5.05
2023-03-20T12:28:49.411Z,4.13
2023-03-20T12:31:25.115Z,4.65
2023-03-20T12:33:58.717Z,6.80
2023-03-20T12:36:33.396Z,4.93
2023-03-20T12:39:04.431Z,3.72
2023-03-20T12:41:41.808Z,5.70
2023-03-20T12:44:28.296Z,5.30
2023-03-20T12:47:06.164Z,5.45
2023-03-20T12:49:46.532Z,4.68
2023-03-20T12:52:21.595Z,4.22
2023-03-20T12:55:31.176Z,4.53
2023-03-20T12:58:07.223Z,2.97
2023-03-20T13:00:41.309Z,4.70
2023-03-20T13:03:33.128Z,3.47
2023-03-20T13:06:11.099Z,4.60
2023-03-20T13:08:52.643Z,4.00
2023-03-20T13:11:28.034Z,4.10
2023-03-20T13:14:00.335Z,7.03
2023-03-20T13:16:40.285Z,4.60
2023-03-20T13:19:15.909Z,4.20
2023-03-20T13:21:55.524Z,2.38
2023-03-20T13:27:28.827Z,4.30
2023-03-20T13:30:02.916Z,3.20
2023-03-20T13:32:41.881Z,5.40
2023-03-20T13:35:27.174Z,3.83
2023-03-20T13:37:58.036Z,5.72
2023-03-20T13:40:30.570Z,5.03
2023-03-20T13:43:13.931Z,3.90
2023-03-20T13:45:44.595Z,3.80
2023-03-20T13:48:26.272Z,3.35
2023-03-20T13:51:05.400Z,4.60
2023-03-20T13:53:43.888Z,2.63
2023-03-20T13:56:20.533Z,4.32
2023-03-20T14:01:53.859Z,2.53
2023-03-20T14:04:24.948Z,2.30
2023-03-20T14:06:57.333Z,2.13
2023-03-20T14:09:34.046Z,2.20
2023-03-20T14:12:05.967Z,2.88
2023-03-20T14:14:41.168Z,3.13
2023-03-20T14:17:19.611Z,3.08
2023-03-20T14:19:49.375Z,3.45
2023-03-20T14:22:20.503Z,4.18
2023-03-20T14:25:15.545Z,2.83
2023-03-20T14:27:57.200Z,3.65
2023-03-20T14:30:41.340Z,2.80
2023-03-20T14:33:27.889Z,3.42
2023-03-20T14:36:11.243Z,2.90
2023-03-20T14:38:42.049Z,2.92
2023-03-20T14:41:17.969Z,4.50
2023-03-20T14:43:58.625Z,2.47
2023-03-20T14:46:33.344Z,4.50
2023-03-20T14:49:04.532Z,6.70
2023-03-20T14:51:47.507Z,5.57
2023-03-20T14:54:38.401Z,11.30
2023-03-20T14:57:11.639Z,4.53
2023-03-20T14:59:42.643Z,2.90
2023-03-20T15:02:28.037Z,4.75
2023-03-20T15:05:22.659Z,4.65
2023-03-20T15:07:51.320Z,4.38
2023-03-20T15:10:20.694Z,3.08
2023-03-20T15:12:49.080Z,2.92
2023-03-20T15:15:27.211Z,3.08
2023-03-20T15:17:56.007Z,4.85
2023-03-20T15:20:29.452Z,2.05
2023-03-20T15:22:59.812Z,4.15
2023-03-20T15:25:32.961Z,4.55
2023-03-20T15:28:01.583Z,2.42
2023-03-20T15:30:33.980Z,4.85
2023-03-20T15:33:06.146Z,3.13
2023-03-20T15:35:36.056Z,3.70
2023-03-20T15:38:10.889Z,2.13
2023-03-20T15:40:50.480Z,2.58
2023-03-20T15:43:23.817Z,2.80
2023-03-20T15:46:14.228Z,3.70
2023-03-20T15:48:44.461Z,2.22
2023-03-20T15:51:16.478Z,2.40
2023-03-20T15:53:48.871Z,3.33
2023-03-20T15:56:19.951Z,4.35
2023-03-20T15:58:52.530Z,4.93
2023-03-20T16:01:22.616Z,2.55
2023-03-20T16:03:53.176Z,3.17
2023-03-20T16:06:27.317Z,2.78
2023-03-20T16:09:00.775Z,2.00
2023-03-20T16:11:39.564Z,4.13
2023-03-20T16:14:09.630Z,3.38
2023-03-20T16:16:39.410Z,2.05
2023-03-20T16:19:10.445Z,3.55
2023-03-20T16:21:45.450Z,2.97
2023-03-20T16:24:20.908Z,3.17
2023-03-20T16:26:55.303Z,4.45
2023-03-20T16:29:28.582Z,4.57
2023-03-20T16:32:00.774Z,1.67
2023-03-20T16:34:36.953Z,1.83
2023-03-20T16:37:25.920Z,4.93
2023-03-20T16:40:16.031Z,2.28
2023-03-20T16:42:50.433Z,2.15
2023-03-20T16:45:28.142Z,5.78
2023-03-20T16:48:22.892Z,3.72
2023-03-20T16:50:58.210Z,3.20
2023-03-20T16:53:31.207Z,3.33
2023-03-20T16:56:00.013Z,2.20
2023-03-20T16:58:32.436Z,1.70
2023-03-20T17:01:03.044Z,3.03
2023-03-20T17:03:40.032Z,2.92
2023-03-20T17:06:29.706Z,2.67
2023-03-20T17:09:04.780Z,2.88
2023-03-20T17:11:36.137Z,3.88
2023-03-20T17:14:07.001Z,4.05
2023-03-20T17:16:36.768Z,2.72
2023-03-20T17:19:10.627Z,8.10
2023-03-20T17:21:40.121Z,2.75
2023-03-20T17:24:11.131Z,3.40
2023-03-20T17:26:39.970Z,3.58
2023-03-20T17:29:08.581Z,3.10
2023-03-20T17:31:37.608Z,3.47
2023-03-20T17:34:05.978Z,4.55
2023-03-20T17:36:35.842Z,5.20
2023-03-20T17:39:04.595Z,3.80
2023-03-20T17:41:34.767Z,4.20
2023-03-20T17:44:04.302Z,4.00
2023-03-20T17:46:38.114Z,3.35
2023-03-20T17:49:19.600Z,3.00
2023-03-20T17:51:47.981Z,6.32
2023-03-20T17:54:16.566Z,2.88
2023-03-20T17:56:47.912Z,4.05
2023-03-20T17:59:18.751Z,5.45
2023-03-20T18:01:47.016Z,6.18
2023-03-20T18:04:15.696Z,4.45
2023-03-20T18:06:44.356Z,6.57
2023-03-20T18:09:15.346Z,2.60
2023-03-20T18:11:43.607Z,3.72
2023-03-20T18:14:17.445Z,5.05
2023-03-20T18:16:46.007Z,3.13
2023-03-20T18:19:24.046Z,4.55
2023-03-20T18:21:52.576Z,3.10
2023-03-20T18:24:21.365Z,3.70
2023-03-20T18:26:50.914Z,6.15
2023-03-20T18:29:21.066Z,4.22
2023-03-20T18:31:49.583Z,3.78
2023-03-20T18:34:18.241Z,3.28
2023-03-20T18:36:46.644Z,5.72
2023-03-20T18:39:19.069Z,7.10
2023-03-20T18:41:47.756Z,3.83
2023-03-20T18:44:16.257Z,5.50
2023-03-20T18:46:46.312Z,6.35
2023-03-20T18:49:17.583Z,4.95
2023-03-20T18:51:46.728Z,4.30
2023-03-20T18:54:15.413Z,5.15
2023-03-20T18:56:46.103Z,5.30
2023-03-20T18:59:14.537Z,4.70
2023-03-20T19:01:45.895Z,5.80
2023-03-20T19:04:16.249Z,3.70
2023-03-20T19:06:45.695Z,5.68
2023-03-20T19:09:14.222Z,8.50
2023-03-20T19:11:43.049Z,6.53
2023-03-20T19:14:11.679Z,8.18
2023-03-20T19:16:41.588Z,5.53
2023-03-20T19:19:12.944Z,6.15
2023-03-20T19:21:45.777Z,7.07
2023-03-20T19:24:14.280Z,7.78
2023-03-20T19:26:42.630Z,7.90
2023-03-20T19:29:14.033Z,7.78
2023-03-20T19:31:43.084Z,4.97
2023-03-20T19:34:36.840Z,4.32
2023-03-20T19:37:01.135Z,4.53
2023-03-20T19:39:29.462Z,5.82
2023-03-20T19:42:11.991Z,5.72
2023-03-20T19:44:46.659Z,5.45
2023-03-20T19:47:16.481Z,9.02
2023-03-20T19:49:44.974Z,3.78
2023-03-20T19:52:28.664Z,5.25
2023-03-20T19:55:03.463Z,5.65
2023-03-20T19:57:33.920Z,4.30
2023-03-20T20:00:48.673Z,6.78
2023-03-20T20:02:51.331Z,5.07
2023-03-20T20:05:27.084Z,4.78
2023-03-20T20:10:48.914Z,4.43
2023-03-20T20:13:19.290Z,3.95
2023-03-20T20:15:47.995Z,4.93
2023-03-20T20:18:17.662Z,9.75
2023-03-20T20:21:32.014Z,5.82
2023-03-20T20:23:39.401Z,9.63
2023-03-20T20:26:09.800Z,10.07
2023-03-20T20:28:38.139Z,12.75
2023-03-20T20:31:09.449Z,8.50
2023-03-20T20:33:39.551Z,8.00
2023-03-20T20:37:13.249Z,7.55
2023-03-20T20:39:02.292Z,6.85
2023-03-20T20:41:31.174Z,7.57
2023-03-20T20:44:17.681Z,7.60
2023-03-20T20:46:46.831Z,7.05
2023-03-20T20:49:19.444Z,12.13
2023-03-20T20:51:49.751Z,7.82
2023-03-20T20:54:19.403Z,8.85
2023-03-20T20:56:47.811Z,11.23
2023-03-20T20:59:17.654Z,6.18
2023-03-20T21:01:46.377Z,6.93
2023-03-20T21:04:14.915Z,6.13
2023-03-20T21:07:08.222Z,5.38
2023-03-20T21:09:34.671Z,7.97
2023-03-20T21:12:06.762Z,5.43
2023-03-20T21:14:35.488Z,6.83
2023-03-20T21:17:04.677Z,5.07
2023-03-20T21:19:35.731Z,5.60
2023-03-20T21:22:04.305Z,5.57
2023-03-20T21:24:35.627Z,4.68
2023-03-20T21:27:05.802Z,5.82
2023-03-20T21:29:34.694Z,5.10
2023-03-20T21:32:03.769Z,7.03
2023-03-20T21:34:32.809Z,4.80
2023-03-20T21:38:04.659Z,4.18
2023-03-20T21:39:59.262Z,5.57
2023-03-20T21:42:27.659Z,5.57
2023-03-20T21:51:00.873Z,7.50
2023-03-20T21:54:28.498Z,5.35
2023-03-20T21:56:50.477Z,6.53
2023-03-20T22:02:08.358Z,5.68
2023-03-20T22:05:28.333Z,7.35
2023-03-20T22:11:14.774Z,5.90
2023-03-20T22:13:59.466Z,7.50
2023-03-20T22:16:36.006Z,7.95
2023-03-20T22:19:38.637Z,8.45
2023-03-20T22:33:46.952Z,9.57
2023-03-20T22:47:00.415Z,12.52
2023-03-20T22:49:29.867Z,11.00
2023-03-20T22:52:14.810Z,10.90
2023-03-20T22:54:46.868Z,14.52
2023-03-20T22:57:15.446Z,12.07
2023-03-20T22:59:43.649Z,13.27
2023-03-20T23:02:13.021Z,16.55
2023-03-20T23:04:41.653Z,23.02
2023-03-20T23:07:12.950Z,14.15
2023-03-20T23:09:42.781Z,9.82
2023-03-20T23:12:11.811Z,8.75
2023-03-20T23:14:45.818Z,7.82
2023-03-20T23:17:15.980Z,11.13
2023-03-20T23:19:49.132Z,10.55
2023-03-20T23:22:23.714Z,7.82
2023-03-20T23:24:55.223Z,8.65
2023-03-20T23:27:24.080Z,11.48
2023-03-20T23:29:52.808Z,6.63
2023-03-20T23:32:22.963Z,6.20
2023-03-20T23:34:53.902Z,5.85
2023-03-20T23:37:22.564Z,7.80
2023-03-20T23:39:50.870Z,5.78
2023-03-20T23:42:30.053Z,7.50
2023-03-20T23:45:13.171Z,6.40
2023-03-20T23:47:49.603Z,5.35
2023-03-20T23:50:27.690Z,4.65
2023-03-20T23:53:09.401Z,6.45
2023-03-20T23:55:50.183Z,7.20
2023-03-20T23:58:21.228Z,4.72
